createdAt,value
2022-12-25T00:01:16.897Z,9.70
2022-12-25T00:03:43.962Z,10.05
2022-12-25T00:06:11.002Z,9.68
2022-12-25T00:08:38.980Z,9.95
2022-12-25T00:11:17.166Z,10.27
2022-12-25T00:13:44.396Z,9.50
2022-12-25T00:16:21.251Z,9.57
2022-12-25T00:18:48.270Z,9.55
2022-12-25T00:21:18.185Z,9.50
2022-12-25T00:23:44.974Z,9.83
2022-12-25T00:26:14.490Z,9.13
2022-12-25T00:28:41.990Z,9.25
2022-12-25T00:31:11.244Z,9.35
2022-12-25T00:33:39.885Z,9.20
2022-12-25T00:36:08.407Z,9.50
2022-12-25T00:38:36.863Z,9.98
2022-12-25T00:41:18.296Z,9.57
2022-12-25T00:43:45.180Z,9.48
2022-12-25T00:46:13.238Z,9.13
2022-12-25T00:48:41.772Z,9.50
2022-12-25T00:51:11.381Z,9.10
2022-12-25T00:53:38.345Z,8.95
2022-12-25T00:56:07.404Z,8.48
2022-12-25T00:58:35.731Z,9.25
2022-12-25T01:01:03.229Z,9.50
2022-12-25T01:03:30.314Z,10.05
2022-12-25T01:05:59.976Z,11.02
2022-12-25T01:08:29.667Z,9.05
2022-12-25T01:10:59.395Z,9.25
2022-12-25T01:13:27.333Z,9.10
2022-12-25T01:15:54.431Z,8.55
2022-12-25T01:18:23.467Z,8.63
2022-12-25T01:20:50.699Z,8.63
2022-12-25T01:23:17.426Z,9.20
2022-12-25T01:25:44.191Z,9.40
2022-12-25T01:28:11.012Z,9.60
2022-12-25T01:30:37.738Z,8.82
2022-12-25T01:33:05.021Z,9.60
2022-12-25T01:35:31.958Z,9.35
2022-12-25T01:37:58.723Z,9.70
2022-12-25T01:40:25.509Z,9.25
2022-12-25T01:42:52.272Z,8.65
2022-12-25T01:45:35.942Z,8.95
2022-12-25T01:48:11.767Z,8.82
2022-12-25T01:50:40.744Z,8.93
2022-12-25T01:53:08.058Z,9.02
2022-12-25T01:55:36.192Z,9.60
2022-12-25T01:58:03.378Z,9.30
2022-12-25T02:00:30.323Z,8.75
2022-12-25T02:02:57.994Z,9.20
2022-12-25T02:05:32.774Z,9.30
2022-12-25T02:08:03.016Z,9.30
2022-12-25T02:10:30.014Z,9.13
2022-12-25T02:12:56.904Z,10.02
2022-12-25T02:15:31.535Z,9.27
2022-12-25T02:18:03.938Z,9.40
2022-12-25T02:20:44.413Z,10.73
2022-12-25T02:23:28.383Z,9.60
2022-12-25T02:26:18.939Z,9.70
2022-12-25T02:29:06.994Z,9.33
2022-12-25T02:31:48.741Z,9.95
2022-12-25T02:34:26.068Z,9.85
2022-12-25T02:37:19.267Z,9.82
2022-12-25T02:40:02.106Z,9.80
2022-12-25T02:42:53.679Z,10.10
2022-12-25T02:45:49.466Z,9.52
2022-12-25T02:48:37.362Z,9.60
2022-12-25T02:51:39.932Z,9.82
2022-12-25T02:54:29.417Z,10.75
2022-12-25T02:57:16.836Z,9.80
2022-12-25T03:00:06.077Z,10.55
2022-12-25T03:02:52.926Z,10.32
2022-12-25T03:05:42.959Z,9.73
2022-12-25T03:08:19.005Z,10.48
2022-12-25T03:11:08.817Z,11.17
2022-12-25T03:13:40.034Z,10.50
2022-12-25T03:16:26.499Z,10.57
2022-12-25T03:18:56.062Z,10.68
2022-12-25T03:21:41.293Z,10.70
2022-12-25T03:24:26.907Z,10.10
2022-12-25T03:26:56.739Z,10.50
2022-12-25T03:29:51.248Z,10.63
2022-12-25T03:32:58.818Z,9.73
2022-12-25T03:35:47.274Z,10.45
2022-12-25T03:39:20.777Z,10.10
2022-12-25T03:42:11.441Z,9.50
2022-12-25T03:45:25.795Z,10.27
2022-12-25T03:48:13.467Z,10.00
2022-12-25T03:51:05.289Z,9.27
2022-12-25T03:54:06.820Z,9.40
2022-12-25T03:56:54.047Z,9.68
2022-12-25T03:59:42.161Z,10.13
2022-12-25T04:02:28.232Z,10.07
2022-12-25T04:05:13.751Z,9.15
2022-12-25T04:07:59.202Z,9.90
2022-12-25T04:10:48.867Z,9.30
2022-12-25T04:13:34.422Z,9.48
2022-12-25T04:16:20.236Z,9.27
2022-12-25T04:19:05.431Z,8.98
2022-12-25T04:21:56.735Z,9.33
2022-12-25T04:24:41.906Z,8.70
2022-12-25T04:27:27.412Z,8.68
2022-12-25T04:30:12.924Z,8.48
2022-12-25T04:33:11.986Z,9.35
2022-12-25T04:35:57.359Z,8.43
2022-12-25T04:38:24.582Z,9.18
2022-12-25T04:40:51.334Z,9.18
2022-12-25T04:43:18.080Z,8.43
2022-12-25T04:45:53.004Z,7.85
2022-12-25T04:48:19.826Z,8.10
2022-12-25T04:50:46.684Z,8.35
2022-12-25T04:53:13.642Z,8.00
2022-12-25T04:55:40.400Z,7.63
2022-12-25T04:58:07.281Z,7.53
2022-12-25T05:00:34.126Z,7.57
2022-12-25T05:03:01.008Z,7.47
2022-12-25T05:05:28.105Z,7.78
2022-12-25T05:07:55.006Z,7.05
2022-12-25T05:10:21.728Z,7.38
2022-12-25T05:12:48.496Z,7.10
2022-12-25T05:15:16.100Z,6.88
2022-12-25T05:17:43.011Z,6.65
2022-12-25T05:20:09.975Z,7.25
2022-12-25T05:22:36.812Z,6.20
2022-12-25T05:25:03.701Z,6.83
2022-12-25T05:27:30.654Z,6.43
2022-12-25T05:29:57.712Z,6.05
2022-12-25T05:32:24.441Z,6.45
2022-12-25T05:34:51.156Z,5.60
2022-12-25T05:37:17.842Z,6.23
2022-12-25T05:39:44.609Z,5.75
2022-12-25T05:42:11.316Z,5.78
2022-12-25T05:44:38.013Z,6.35
2022-12-25T05:47:04.983Z,6.80
2022-12-25T05:49:31.787Z,6.70
2022-12-25T05:51:58.666Z,6.25
2022-12-25T05:54:25.553Z,6.07
2022-12-25T05:56:52.405Z,6.60
2022-12-25T05:59:19.294Z,6.28
2022-12-25T06:01:47.040Z,5.90
2022-12-25T06:04:13.991Z,6.10
2022-12-25T06:06:41.012Z,6.15
2022-12-25T06:09:07.793Z,6.25
2022-12-25T06:11:34.547Z,5.93
2022-12-25T06:14:01.277Z,4.90
2022-12-25T06:16:31.608Z,5.13
2022-12-25T06:19:02.473Z,4.95
2022-12-25T06:21:29.226Z,5.07
2022-12-25T06:23:56.246Z,4.82
2022-12-25T06:26:22.979Z,5.10
2022-12-25T06:28:49.756Z,5.05
2022-12-25T06:31:19.060Z,4.72
2022-12-25T06:33:46.605Z,5.00
2022-12-25T06:36:16.432Z,4.93
2022-12-25T06:38:43.440Z,5.07
2022-12-25T06:41:13.236Z,4.88
2022-12-25T06:43:39.962Z,5.22
2022-12-25T06:46:09.807Z,4.93
2022-12-25T06:48:38.053Z,4.63
2022-12-25T06:51:06.440Z,5.17
2022-12-25T06:53:39.891Z,4.50
2022-12-25T06:56:15.561Z,4.47
2022-12-25T06:58:47.646Z,4.38
2022-12-25T07:01:20.003Z,4.20
2022-12-25T07:03:49.932Z,4.53
2022-12-25T07:06:16.639Z,4.78
2022-12-25T07:08:43.514Z,4.82
2022-12-25T07:11:10.355Z,4.65
2022-12-25T07:13:37.376Z,5.15
2022-12-25T07:16:05.468Z,5.03
2022-12-25T07:18:33.704Z,5.70
2022-12-25T07:21:06.807Z,5.60
2022-12-25T07:23:33.618Z,5.75
2022-12-25T07:26:01.530Z,5.68
2022-12-25T07:28:29.057Z,5.87
2022-12-25T07:31:00.782Z,5.78
2022-12-25T07:33:27.508Z,6.05
2022-12-25T07:35:54.197Z,6.22
2022-12-25T07:38:20.963Z,6.32
2022-12-25T07:40:47.740Z,6.03
2022-12-25T07:43:14.527Z,5.97
2022-12-25T07:45:41.319Z,5.80
2022-12-25T07:48:13.390Z,6.40
2022-12-25T07:50:43.379Z,6.63
2022-12-25T07:53:10.115Z,6.47
2022-12-25T07:55:36.806Z,5.45
2022-12-25T07:58:03.565Z,5.45
2022-12-25T08:00:33.914Z,5.03
2022-12-25T08:03:00.836Z,5.18
2022-12-25T08:05:27.750Z,5.00
2022-12-25T08:07:57.959Z,5.03
2022-12-25T08:10:25.401Z,4.50
2022-12-25T08:12:56.346Z,4.45
2022-12-25T08:15:23.051Z,4.65
2022-12-25T08:17:49.810Z,4.60
2022-12-25T08:20:18.000Z,5.70
2022-12-25T08:22:44.815Z,5.75
2022-12-25T08:25:11.490Z,6.15
2022-12-25T08:27:38.258Z,6.43
2022-12-25T08:30:05.667Z,5.87
2022-12-25T08:32:33.815Z,5.05
2022-12-25T08:35:00.567Z,4.78
2022-12-25T08:37:30.230Z,4.70
2022-12-25T08:39:56.982Z,4.32
2022-12-25T08:42:23.801Z,4.77
2022-12-25T08:44:50.554Z,3.97
2022-12-25T08:47:17.608Z,4.53
2022-12-25T08:49:44.394Z,4.70
2022-12-25T08:52:11.283Z,4.05
2022-12-25T08:54:38.027Z,4.20
2022-12-25T08:57:04.859Z,4.18
2022-12-25T08:59:31.905Z,4.30
2022-12-25T09:01:58.763Z,4.50
2022-12-25T09:04:25.730Z,4.40
2022-12-25T09:06:52.421Z,4.30
2022-12-25T09:09:19.156Z,4.20
2022-12-25T09:11:46.081Z,4.03
2022-12-25T09:14:14.350Z,4.20
2022-12-25T09:16:41.111Z,4.20
2022-12-25T09:19:07.890Z,3.90
2022-12-25T09:21:36.744Z,4.35
2022-12-25T09:24:04.976Z,4.90
2022-12-25T09:26:32.089Z,4.70
2022-12-25T09:28:58.811Z,4.53
2022-12-25T09:31:25.734Z,4.10
2022-12-25T09:33:57.924Z,4.10
2022-12-25T09:36:25.846Z,4.38
2022-12-25T09:38:53.151Z,4.70
2022-12-25T09:41:22.864Z,4.63
2022-12-25T09:44:06.855Z,4.67
2022-12-25T09:46:50.215Z,4.45
2022-12-25T09:49:44.483Z,5.28
2022-12-25T09:52:28.647Z,5.93
2022-12-25T09:55:08.199Z,5.22
2022-12-25T09:57:35.043Z,4.50
2022-12-25T10:00:01.972Z,4.88
2022-12-25T10:02:40.960Z,4.57
2022-12-25T10:05:17.320Z,4.95
2022-12-25T10:07:57.692Z,4.80
2022-12-25T10:10:45.666Z,5.43
2022-12-25T10:13:22.881Z,5.60
2022-12-25T10:16:12.793Z,6.05
2022-12-25T10:19:05.675Z,5.60
2022-12-25T10:21:32.856Z,5.28
2022-12-25T10:24:05.899Z,5.30
2022-12-25T10:26:34.287Z,5.38
2022-12-25T10:29:14.145Z,5.15
2022-12-25T10:31:41.979Z,5.25
2022-12-25T10:34:12.134Z,5.18
2022-12-25T10:36:38.915Z,5.10
2022-12-25T10:39:05.669Z,5.10
2022-12-25T10:41:48.327Z,5.30
2022-12-25T10:44:20.494Z,5.38
2022-12-25T10:46:59.041Z,5.38
2022-12-25T10:49:34.319Z,5.57
2022-12-25T10:52:02.599Z,5.30
2022-12-25T10:54:38.536Z,5.30
2022-12-25T10:57:18.404Z,5.38
2022-12-25T10:59:51.122Z,5.15
2022-12-25T11:02:26.489Z,5.93
2022-12-25T11:05:06.282Z,5.80
2022-12-25T11:07:46.751Z,5.38
2022-12-25T11:10:23.139Z,5.35
2022-12-25T11:12:50.653Z,5.28
2022-12-25T11:15:29.498Z,5.90
2022-12-25T11:17:56.302Z,5.63
2022-12-25T11:20:23.532Z,5.30
2022-12-25T11:22:50.782Z,5.03
2022-12-25T11:25:26.180Z,4.80
2022-12-25T11:28:04.571Z,4.67
2022-12-25T11:30:33.697Z,5.15
2022-12-25T11:33:12.537Z,5.20
2022-12-25T11:35:50.368Z,4.95
2022-12-25T11:38:17.182Z,5.85
2022-12-25T11:40:54.763Z,6.43
2022-12-25T11:43:39.190Z,6.13
2022-12-25T11:46:18.421Z,6.55
2022-12-25T11:48:56.028Z,6.00
2022-12-25T11:51:26.942Z,5.93
2022-12-25T11:54:08.408Z,5.50
2022-12-25T11:56:37.618Z,6.55
2022-12-25T11:59:16.416Z,5.90
2022-12-25T12:02:09.795Z,6.20
2022-12-25T12:04:44.344Z,5.80
2022-12-25T12:07:32.128Z,5.50
2022-12-25T12:10:31.132Z,6.05
2022-12-25T12:12:57.821Z,6.03
2022-12-25T12:15:30.519Z,5.82
2022-12-25T12:18:28.832Z,5.70
2022-12-25T12:21:06.681Z,5.53
2022-12-25T12:23:45.303Z,5.78
2022-12-25T12:26:28.803Z,6.10
2022-12-25T12:29:00.893Z,6.05
2022-12-25T12:31:46.807Z,5.82
2022-12-25T12:34:24.137Z,6.13
2022-12-25T12:36:56.891Z,6.63
2022-12-25T12:39:38.271Z,6.47
2022-12-25T12:42:18.044Z,6.75
2022-12-25T12:44:46.206Z,7.60
2022-12-25T12:47:39.393Z,7.50
2022-12-25T12:50:07.492Z,7.32
2022-12-25T12:52:40.982Z,6.47
2022-12-25T12:55:13.783Z,6.22
2022-12-25T12:57:41.301Z,6.00
2022-12-25T13:00:33.951Z,6.40
2022-12-25T13:03:01.194Z,6.13
2022-12-25T13:06:24.531Z,5.88
2022-12-25T13:09:05.975Z,6.43
2022-12-25T13:11:38.820Z,6.70
2022-12-25T13:14:06.011Z,6.57
2022-12-25T13:16:44.415Z,6.32
2022-12-25T13:19:23.162Z,6.50
2022-12-25T13:22:02.036Z,6.75
2022-12-25T13:24:37.944Z,6.45
2022-12-25T13:27:37.089Z,7.00
2022-12-25T13:30:20.637Z,6.65
2022-12-25T13:32:49.156Z,7.45
2022-12-25T13:35:17.270Z,7.38
2022-12-25T13:37:45.139Z,7.60
2022-12-25T13:40:27.599Z,7.73
2022-12-25T13:42:59.660Z,7.30
2022-12-25T13:45:29.400Z,7.82
2022-12-25T13:47:57.020Z,8.00
2022-12-25T13:50:32.620Z,7.60
2022-12-25T13:53:13.911Z,7.70
2022-12-25T13:55:42.481Z,7.00
2022-12-25T13:58:18.686Z,7.40
2022-12-25T14:00:49.333Z,7.43
2022-12-25T14:03:29.327Z,8.20
2022-12-25T14:05:58.049Z,8.33
2022-12-25T14:08:28.015Z,8.20
2022-12-25T14:10:55.916Z,8.38
2022-12-25T14:13:30.294Z,8.85
2022-12-25T14:15:57.973Z,8.20
2022-12-25T14:18:25.953Z,8.13
2022-12-25T14:21:16.040Z,8.15
2022-12-25T14:23:48.122Z,8.68
2022-12-25T14:26:20.666Z,8.68
2022-12-25T14:28:53.493Z,8.90
2022-12-25T14:31:21.900Z,8.67
2022-12-25T14:33:49.257Z,8.02
2022-12-25T14:36:16.270Z,8.60
2022-12-25T14:38:44.295Z,9.00
2022-12-25T14:41:25.996Z,8.57
2022-12-25T14:43:55.086Z,8.50
2022-12-25T14:46:27.645Z,8.60
2022-12-25T14:49:21.711Z,8.50
2022-12-25T14:51:48.547Z,8.82
2022-12-25T14:54:19.751Z,9.50
2022-12-25T14:56:48.409Z,10.33
2022-12-25T14:59:23.785Z,10.20
2022-12-25T15:01:57.667Z,9.95
2022-12-25T15:04:26.128Z,10.45
2022-12-25T15:06:55.583Z,10.63
2022-12-25T15:09:23.559Z,10.80
2022-12-25T15:11:52.902Z,11.45
2022-12-25T15:14:27.056Z,10.65
2022-12-25T15:16:57.604Z,10.20
2022-12-25T15:19:34.783Z,10.18
2022-12-25T15:22:04.079Z,10.47
2022-12-25T15:24:31.036Z,10.30
2022-12-25T15:27:00.306Z,10.88
2022-12-25T15:30:07.250Z,10.85
2022-12-25T15:32:21.673Z,9.68
2022-12-25T15:34:49.948Z,10.23
2022-12-25T15:37:18.308Z,10.88
2022-12-25T15:39:45.598Z,10.18
2022-12-25T15:42:18.098Z,10.88
2022-12-25T15:44:45.416Z,11.48
2022-12-25T15:47:13.409Z,11.87
2022-12-25T15:49:40.651Z,11.90
2022-12-25T15:52:10.486Z,11.38
2022-12-25T15:54:37.188Z,11.55
2022-12-25T15:57:06.307Z,11.38
2022-12-25T15:59:33.535Z,11.63
2022-12-25T16:02:01.903Z,10.63
2022-12-25T16:04:31.518Z,10.65
2022-12-25T16:06:59.295Z,10.88
2022-12-25T16:09:29.917Z,10.77
2022-12-25T16:11:56.716Z,11.57
2022-12-25T16:14:23.513Z,11.57
2022-12-25T16:16:50.249Z,11.07
2022-12-25T16:19:17.009Z,12.00
2022-12-25T16:21:45.933Z,13.45
2022-12-25T16:24:14.405Z,13.07
2022-12-25T16:26:42.161Z,12.77
2022-12-25T16:29:09.383Z,12.30
2022-12-25T16:31:37.233Z,11.50
2022-12-25T16:34:07.534Z,10.73
2022-12-25T16:36:34.921Z,11.90
2022-12-25T16:39:02.280Z,13.75
2022-12-25T16:41:29.209Z,13.27
2022-12-25T16:43:55.924Z,13.10
2022-12-25T16:46:22.987Z,13.90
2022-12-25T16:48:49.935Z,13.73
2022-12-25T16:51:19.720Z,13.35
2022-12-25T16:53:46.747Z,14.38
2022-12-25T16:56:16.696Z,14.52
2022-12-25T16:58:47.265Z,12.82
2022-12-25T17:01:16.551Z,13.57
2022-12-25T17:03:43.768Z,13.32
2022-12-25T17:06:22.985Z,13.82
2022-12-25T17:08:51.882Z,13.60
2022-12-25T17:11:23.657Z,13.50
2022-12-25T17:13:50.691Z,13.03
2022-12-25T17:16:26.517Z,12.85
2022-12-25T17:18:55.294Z,13.43
2022-12-25T17:21:24.017Z,13.05
2022-12-25T17:23:50.840Z,13.40
2022-12-25T17:26:17.630Z,13.00
2022-12-25T17:28:44.653Z,13.57
2022-12-25T17:31:13.609Z,13.65
2022-12-25T17:33:42.918Z,13.10
2022-12-25T17:36:15.885Z,13.13
2022-12-25T17:38:42.999Z,14.30
2022-12-25T17:41:13.006Z,13.50
2022-12-25T17:43:42.067Z,13.50
2022-12-25T17:46:12.362Z,13.45
2022-12-25T17:48:39.216Z,14.07
2022-12-25T17:51:10.069Z,13.53
2022-12-25T17:53:38.484Z,13.43
2022-12-25T17:56:05.812Z,13.27
2022-12-25T17:58:32.853Z,13.05
2022-12-25T18:01:23.500Z,12.45
2022-12-25T18:03:51.382Z,13.83
2022-12-25T18:06:21.559Z,15.27
2022-12-25T18:08:49.823Z,14.23
2022-12-25T18:11:20.742Z,13.93
2022-12-25T18:13:51.953Z,15.20
2022-12-25T18:16:21.372Z,13.20
2022-12-25T18:18:52.194Z,13.30
2022-12-25T18:21:21.151Z,12.77
2022-12-25T18:23:48.538Z,12.93
2022-12-25T18:26:15.301Z,11.57
2022-12-25T18:28:42.814Z,10.87
2022-12-25T18:31:15.271Z,12.30
2022-12-25T18:33:42.755Z,12.13
2022-12-25T18:36:13.025Z,11.98
2022-12-25T18:38:39.812Z,12.30
2022-12-25T18:41:08.755Z,12.50
2022-12-25T18:43:52.812Z,15.05
2022-12-25T18:46:26.114Z,17.73
2022-12-25T18:48:55.663Z,18.88
2022-12-25T18:51:22.647Z,17.63
2022-12-25T18:53:49.624Z,18.67
2022-12-25T18:56:18.298Z,16.63
2022-12-25T18:58:46.809Z,14.50
2022-12-25T19:01:18.344Z,17.20
2022-12-25T19:03:46.439Z,15.27
2022-12-25T19:06:24.982Z,14.20
2022-12-25T19:08:52.320Z,14.52
2022-12-25T19:11:20.147Z,13.63
2022-12-25T19:13:47.159Z,13.88
2022-12-25T19:16:14.817Z,13.25
2022-12-25T19:18:42.366Z,12.43
2022-12-25T19:21:10.401Z,13.35
2022-12-25T19:23:40.590Z,13.23
2022-12-25T19:26:08.905Z,13.40
2022-12-25T19:28:36.255Z,12.88
2022-12-25T19:31:03.690Z,12.67
2022-12-25T19:33:34.111Z,12.68
2022-12-25T19:36:02.100Z,12.65
2022-12-25T19:38:29.113Z,13.65
2022-12-25T19:41:02.140Z,13.65
2022-12-25T19:43:30.874Z,13.50
2022-12-25T19:45:57.994Z,13.73
2022-12-25T19:48:25.428Z,15.35
2022-12-25T19:50:52.740Z,15.32
2022-12-25T19:53:23.113Z,13.70
2022-12-25T19:55:53.666Z,16.23
2022-12-25T19:58:21.751Z,14.85
2022-12-25T20:01:00.063Z,15.18
2022-12-25T20:03:27.393Z,15.15
2022-12-25T20:05:54.266Z,18.77
2022-12-25T20:08:21.197Z,19.80
2022-12-25T20:10:49.241Z,25.92
2022-12-25T20:13:16.484Z,35.63
2022-12-25T20:15:43.494Z,32.55
2022-12-25T20:18:10.183Z,31.38
2022-12-25T20:20:37.076Z,31.57
2022-12-25T20:23:04.243Z,28.52
2022-12-25T20:25:31.234Z,30.08
2022-12-25T20:27:58.562Z,26.73
2022-12-25T20:30:25.695Z,28.38
2022-12-25T20:32:52.567Z,29.00
2022-12-25T20:35:19.503Z,30.08
2022-12-25T20:37:46.267Z,28.65
2022-12-25T20:40:13.285Z,24.33
2022-12-25T20:42:40.244Z,34.22
2022-12-25T20:45:07.596Z,19.93
2022-12-25T20:47:35.306Z,18.02
2022-12-25T20:50:02.359Z,16.33
2022-12-25T20:52:29.127Z,18.13
2022-12-25T20:54:55.878Z,20.20
2022-12-25T20:57:22.798Z,18.03
2022-12-25T20:59:49.796Z,17.40
2022-12-25T21:02:35.682Z,16.30
2022-12-25T21:05:04.834Z,18.88
2022-12-25T21:07:31.654Z,16.67
2022-12-25T21:09:59.349Z,16.43
2022-12-25T21:12:26.220Z,21.63
2022-12-25T21:14:52.963Z,16.67
2022-12-25T21:17:19.735Z,15.75
2022-12-25T21:19:46.461Z,15.23
2022-12-25T21:22:14.413Z,13.10
2022-12-25T21:24:41.108Z,12.82
2022-12-25T21:27:07.824Z,13.40
2022-12-25T21:29:34.596Z,13.60
2022-12-25T21:32:20.347Z,13.40
2022-12-25T21:34:47.105Z,13.23
2022-12-25T21:37:13.928Z,13.15
2022-12-25T21:39:40.687Z,12.05
2022-12-25T21:42:07.440Z,12.05
2022-12-25T21:44:34.380Z,11.35
2022-12-25T21:47:01.075Z,11.23
2022-12-25T21:49:46.159Z,10.85
2022-12-25T21:52:12.933Z,10.88
2022-12-25T21:54:39.724Z,11.13
2022-12-25T21:57:06.512Z,10.07
2022-12-25T21:59:33.275Z,11.07
2022-12-25T22:02:00.284Z,10.93
2022-12-25T22:04:27.207Z,10.93
2022-12-25T22:07:12.409Z,11.50
2022-12-25T22:09:39.209Z,11.13
2022-12-25T22:12:28.721Z,10.77
2022-12-25T22:15:03.078Z,10.27
2022-12-25T22:17:50.865Z,9.73
2022-12-25T22:20:22.595Z,10.20
2022-12-25T22:22:49.582Z,10.27
2022-12-25T22:25:17.330Z,9.53
2022-12-25T22:27:45.190Z,9.75
2022-12-25T22:30:15.721Z,9.35
2022-12-25T22:32:43.199Z,8.73
2022-12-25T22:35:12.361Z,8.77
2022-12-25T22:37:40.628Z,9.00
2022-12-25T22:40:10.138Z,9.13
2022-12-25T22:42:37.473Z,8.63
2022-12-25T22:45:04.953Z,9.43
2022-12-25T22:47:31.648Z,8.50
2022-12-25T22:49:58.522Z,8.97
2022-12-25T22:52:25.577Z,7.40
2022-12-25T22:54:52.338Z,7.68
2022-12-25T22:57:19.260Z,7.63
2022-12-25T22:59:46.064Z,7.38
2022-12-25T23:02:13.007Z,6.80
2022-12-25T23:04:39.867Z,8.45
2022-12-25T23:07:07.107Z,7.00
2022-12-25T23:09:34.501Z,7.00
2022-12-25T23:12:01.265Z,8.07
2022-12-25T23:14:40.285Z,7.97
2022-12-25T23:17:29.612Z,8.18
2022-12-25T23:20:17.092Z,8.40
2022-12-25T23:23:02.728Z,8.45
2022-12-25T23:25:48.122Z,8.40
2022-12-25T23:28:34.932Z,8.40
2022-12-25T23:31:01.760Z,8.60
2022-12-25T23:33:28.601Z,9.23
2022-12-25T23:35:55.431Z,9.50
2022-12-25T23:38:22.419Z,9.95
2022-12-25T23:40:49.169Z,9.30
2022-12-25T23:43:15.911Z,9.38
2022-12-25T23:45:42.619Z,9.30
2022-12-25T23:48:09.352Z,9.70
2022-12-25T23:50:36.115Z,9.25
2022-12-25T23:53:02.837Z,9.27
2022-12-25T23:55:29.518Z,9.00
2022-12-25T23:57:56.411Z,10.80
